Terminal Aerodrome Forecast
Issued by NWS Austin/San Antonio, TX

Home | Current Version | Previous Version | Text Only | Print | Product List | Glossary On
Versions: 1 2 3 4 5 6 7 8 9 10 11 12 13 14 15 16
000
FTUS44 KEWX 030523
TAFSAT
TAF
KSAT 030523Z 0306/0412 17006KT P6SM FEW250
     FM031100 17003KT 6SM BR SCT012
     FM031400 17006KT P6SM SCT022
     FM031800 14008KT P6SM SCT050
     FM040900 16005KT P6SM BKN012=

USA.gov is the U.S. government's official web portal to all federal, state and local government web resources and services.